createdAt,value
2019-04-04T00:02:06.171Z,6.14
2019-04-04T00:04:36.603Z,6.21
2019-04-04T00:07:08.300Z,6.08
2019-04-04T00:09:38.476Z,6.04
2019-04-04T00:12:08.750Z,6.02
2019-04-04T00:14:43.548Z,6.00
2019-04-04T00:17:12.669Z,5.97
2019-04-04T00:19:42.861Z,6.00
2019-04-04T00:22:13.036Z,6.00
2019-04-04T00:24:43.214Z,5.97
2019-04-04T00:27:13.872Z,5.90
2019-04-04T00:29:47.962Z,5.85
2019-04-04T00:32:20.780Z,5.89
2019-04-04T00:34:50.178Z,5.87
2019-04-04T00:37:20.348Z,5.80
2019-04-04T00:39:50.884Z,5.83
2019-04-04T00:42:21.066Z,5.82
2019-04-04T00:44:51.324Z,5.66
2019-04-04T00:47:21.638Z,5.71
2019-04-04T00:49:51.872Z,5.69
2019-04-04T00:52:22.086Z,5.70
2019-04-04T00:54:52.339Z,5.82
2019-04-04T00:57:22.609Z,5.71
2019-04-04T00:59:53.642Z,5.70
2019-04-04T01:02:27.239Z,5.62
2019-04-04T01:04:56.079Z,5.64
2019-04-04T01:07:26.354Z,5.63
2019-04-04T01:09:56.856Z,5.55
2019-04-04T01:12:27.092Z,5.49
2019-04-04T01:14:58.157Z,5.62
2019-04-04T01:17:29.297Z,5.63
2019-04-04T01:19:59.504Z,5.53
2019-04-04T01:22:29.667Z,5.53
2019-04-04T01:25:01.028Z,5.47
2019-04-04T01:27:31.819Z,5.58
2019-04-04T01:30:02.220Z,5.52
2019-04-04T01:32:33.480Z,5.59
2019-04-04T01:35:03.708Z,5.54
2019-04-04T01:37:33.930Z,5.59
2019-04-04T01:40:04.464Z,5.54
2019-04-04T01:42:37.917Z,5.57
2019-04-04T01:45:07.790Z,5.50
2019-04-04T01:47:38.005Z,5.55
2019-04-04T01:50:08.421Z,5.57
2019-04-04T01:52:38.727Z,5.55
2019-04-04T01:55:08.919Z,5.57
2019-04-04T01:57:39.487Z,5.55
2019-04-04T02:00:10.949Z,5.55
2019-04-04T02:02:41.333Z,5.69
2019-04-04T02:05:14.612Z,5.64
2019-04-04T02:07:44.854Z,5.57
2019-04-04T02:10:15.068Z,5.56
2019-04-04T02:12:45.221Z,5.50
2019-04-04T02:15:15.468Z,5.61
2019-04-04T02:17:45.636Z,5.64
2019-04-04T02:20:15.812Z,5.65
2019-04-04T02:22:45.988Z,5.66
2019-04-04T02:25:17.260Z,5.58
2019-04-04T02:27:47.477Z,5.45
2019-04-04T02:30:17.695Z,5.59
2019-04-04T02:32:48.703Z,5.45
2019-04-04T02:35:19.147Z,5.48
2019-04-04T02:37:49.341Z,5.48
2019-04-04T02:40:19.769Z,5.54
2019-04-04T02:42:53.909Z,5.49
2019-04-04T02:45:21.932Z,5.53
2019-04-04T02:47:52.110Z,5.46
2019-04-04T02:50:22.783Z,5.44
2019-04-04T02:52:52.946Z,5.40
2019-04-04T02:55:23.163Z,5.46
2019-04-04T02:57:53.328Z,5.48
2019-04-04T03:00:26.417Z,5.44
2019-04-04T03:02:55.610Z,5.45
2019-04-04T03:05:25.911Z,5.37
2019-04-04T03:07:56.069Z,5.37
2019-04-04T03:10:26.854Z,5.29
2019-04-04T03:12:58.627Z,5.30
2019-04-04T03:15:31.496Z,5.35
2019-04-04T03:18:05.179Z,5.23
2019-04-04T03:20:35.634Z,5.28
2019-04-04T03:23:05.873Z,5.24
2019-04-04T03:25:36.176Z,5.26
2019-04-04T03:28:06.440Z,5.12
2019-04-04T03:30:36.815Z,5.13
2019-04-04T03:33:07.018Z,5.19
2019-04-04T03:35:37.211Z,5.13
2019-04-04T03:38:07.411Z,5.12
2019-04-04T03:40:37.596Z,5.15
2019-04-04T03:43:10.586Z,5.07
2019-04-04T03:45:41.073Z,4.94
2019-04-04T03:48:17.101Z,4.99
2019-04-04T03:50:44.162Z,5.03
2019-04-04T03:53:17.724Z,5.18
2019-04-04T03:55:49.109Z,5.06
2019-04-04T03:58:21.470Z,5.10
2019-04-04T04:00:53.253Z,5.12
2019-04-04T04:03:23.666Z,5.09
2019-04-04T04:05:55.625Z,5.04
2019-04-04T04:08:26.802Z,4.99
2019-04-04T04:10:57.650Z,4.88
2019-04-04T04:13:28.705Z,4.96
2019-04-04T04:16:02.451Z,4.90
2019-04-04T04:18:32.076Z,4.95
2019-04-04T04:21:02.630Z,4.90
2019-04-04T04:23:33.358Z,4.93
2019-04-04T04:26:08.049Z,4.90
2019-04-04T04:28:37.225Z,4.89
2019-04-04T04:31:07.857Z,4.94
2019-04-04T04:33:40.984Z,4.92
2019-04-04T04:36:15.773Z,4.92
2019-04-04T04:38:45.666Z,4.85
2019-04-04T04:41:19.910Z,4.84
2019-04-04T04:43:48.662Z,4.85
2019-04-04T04:46:19.414Z,4.93
2019-04-04T04:48:50.011Z,4.99
2019-04-04T04:51:22.613Z,5.04
2019-04-04T04:53:53.579Z,5.05
2019-04-04T04:56:24.768Z,5.08
2019-04-04T04:58:56.329Z,5.15
2019-04-04T05:01:29.239Z,5.19
2019-04-04T05:04:02.422Z,5.21
2019-04-04T05:06:35.421Z,5.28
2019-04-04T05:09:08.655Z,5.28
2019-04-04T05:11:43.814Z,5.39
2019-04-04T05:14:14.975Z,5.38
2019-04-04T05:16:47.724Z,5.36
2019-04-04T05:19:18.993Z,5.49
2019-04-04T05:21:49.969Z,5.46
2019-04-04T05:24:22.646Z,5.51
2019-04-04T05:26:58.328Z,5.58
2019-04-04T05:29:29.598Z,5.61
2019-04-04T05:32:00.389Z,5.67
2019-04-04T05:34:31.007Z,5.74
2019-04-04T05:37:01.801Z,5.83
2019-04-04T05:39:32.357Z,5.85
2019-04-04T05:42:03.082Z,5.85
2019-04-04T05:44:34.286Z,5.95
2019-04-04T05:47:05.419Z,6.13
2019-04-04T05:49:38.183Z,6.19
2019-04-04T05:52:09.301Z,6.08
2019-04-04T05:54:40.306Z,6.18
2019-04-04T05:57:10.821Z,6.13
2019-04-04T05:59:42.415Z,6.18
2019-04-04T06:02:13.484Z,6.23
2019-04-04T06:04:44.260Z,6.13
2019-04-04T06:07:16.517Z,6.29
2019-04-04T06:09:47.401Z,6.34
2019-04-04T06:12:18.199Z,6.52
2019-04-04T06:14:49.103Z,6.63
2019-04-04T06:17:19.807Z,6.61
2019-04-04T06:19:50.719Z,6.66
2019-04-04T06:22:21.831Z,6.57
2019-04-04T06:24:52.463Z,6.80
2019-04-04T06:27:23.238Z,6.92
2019-04-04T06:29:53.738Z,6.89
2019-04-04T06:32:24.305Z,7.02
2019-04-04T06:34:56.695Z,7.12
2019-04-04T06:37:27.541Z,7.10
2019-04-04T06:39:58.832Z,7.16
2019-04-04T06:42:30.435Z,7.19
2019-04-04T06:45:01.197Z,7.18
2019-04-04T06:47:32.462Z,7.28
2019-04-04T06:50:05.100Z,7.26
2019-04-04T06:52:35.505Z,7.28
2019-04-04T06:55:06.800Z,7.55
2019-04-04T06:57:37.653Z,7.59
2019-04-04T07:00:11.046Z,7.60
2019-04-04T07:02:41.715Z,7.65
2019-04-04T07:05:12.743Z,7.82
2019-04-04T07:07:44.092Z,7.88
2019-04-04T07:10:15.149Z,8.05
2019-04-04T07:12:45.642Z,8.18
2019-04-04T07:15:16.269Z,8.08
2019-04-04T07:17:47.264Z,8.24
2019-04-04T07:20:17.897Z,8.34
2019-04-04T07:22:48.826Z,8.48
2019-04-04T07:25:19.356Z,8.58
2019-04-04T07:27:49.959Z,8.65
2019-04-04T07:30:20.692Z,8.73
2019-04-04T07:32:51.599Z,8.81
2019-04-04T07:35:22.270Z,8.96
2019-04-04T07:37:57.045Z,9.08
2019-04-04T07:40:25.467Z,9.15
2019-04-04T07:42:56.238Z,9.22
2019-04-04T07:45:27.064Z,9.36
2019-04-04T07:47:58.007Z,9.54
2019-04-04T07:50:29.512Z,9.60
2019-04-04T07:53:03.907Z,9.62
2019-04-04T07:55:32.886Z,9.59
2019-04-04T07:58:03.516Z,9.54
2019-04-04T08:00:34.231Z,9.80
2019-04-04T08:03:05.383Z,9.90
2019-04-04T08:05:36.064Z,9.92
2019-04-04T08:08:06.800Z,9.92
2019-04-04T08:10:37.473Z,9.98
2019-04-04T08:13:08.110Z,9.99
2019-04-04T08:15:40.044Z,9.82
2019-04-04T08:18:10.587Z,9.78
2019-04-04T08:20:41.625Z,9.82
2019-04-04T08:23:12.099Z,9.90
2019-04-04T08:25:42.631Z,9.92
2019-04-04T08:28:13.558Z,9.94
2019-04-04T08:30:44.097Z,9.80
2019-04-04T08:33:14.931Z,9.71
2019-04-04T08:35:45.533Z,9.76
2019-04-04T08:38:16.020Z,9.87
2019-04-04T08:40:46.579Z,9.86
2019-04-04T08:43:17.137Z,10.00
2019-04-04T08:45:47.879Z,10.14
2019-04-04T08:48:18.654Z,10.13
2019-04-04T08:50:49.396Z,10.16
2019-04-04T08:53:20.292Z,10.21
2019-04-04T08:55:51.200Z,10.51
2019-04-04T08:58:21.859Z,10.43
2019-04-04T09:00:52.528Z,10.63
2019-04-04T09:03:23.281Z,10.46
2019-04-04T09:05:53.943Z,10.50
2019-04-04T09:08:24.400Z,10.44
2019-04-04T09:10:55.010Z,10.35
2019-04-04T09:13:25.683Z,10.43
2019-04-04T09:15:56.487Z,10.39
2019-04-04T09:18:27.346Z,10.36
2019-04-04T09:20:58.069Z,10.49
2019-04-04T09:23:28.763Z,10.51
2019-04-04T09:26:05.323Z,10.45
2019-04-04T09:28:32.043Z,10.58
2019-04-04T09:31:03.883Z,10.55
2019-04-04T09:33:34.561Z,10.53
2019-04-04T09:36:05.378Z,10.63
2019-04-04T09:38:36.412Z,10.56
2019-04-04T09:41:08.239Z,10.69
2019-04-04T09:43:38.886Z,10.74
2019-04-04T09:46:09.672Z,10.60
2019-04-04T09:48:40.507Z,10.78
2019-04-04T09:51:11.535Z,10.78
2019-04-04T09:53:53.002Z,10.74
2019-04-04T09:56:17.507Z,10.60
2019-04-04T09:58:48.418Z,10.61
2019-04-04T10:01:18.951Z,10.66
2019-04-04T10:03:49.541Z,10.68
2019-04-04T10:06:20.359Z,10.73
2019-04-04T10:08:50.867Z,10.83
2019-04-04T10:11:21.420Z,10.93
2019-04-04T10:13:52.219Z,11.05
2019-04-04T10:16:23.020Z,10.93
2019-04-04T10:18:53.477Z,10.91
2019-04-04T10:21:24.187Z,11.06
2019-04-04T10:23:54.631Z,11.17
2019-04-04T10:26:25.125Z,11.24
2019-04-04T10:28:55.739Z,11.13
2019-04-04T10:31:26.888Z,11.33
2019-04-04T10:33:57.530Z,11.18
2019-04-04T10:36:28.018Z,11.02
2019-04-04T10:38:58.638Z,11.00
2019-04-04T10:41:29.298Z,11.05
2019-04-04T10:44:00.138Z,10.97
2019-04-04T10:46:30.827Z,11.11
2019-04-04T10:49:01.738Z,11.20
2019-04-04T10:51:32.474Z,11.20
2019-04-04T10:54:02.957Z,11.16
2019-04-04T10:56:34.225Z,11.03
2019-04-04T10:59:05.007Z,10.96
2019-04-04T11:01:35.641Z,10.86
2019-04-04T11:04:06.366Z,10.77
2019-04-04T11:06:36.945Z,10.70
2019-04-04T11:09:08.343Z,10.54
2019-04-04T11:11:39.510Z,10.61
2019-04-04T11:14:10.018Z,10.75
2019-04-04T11:16:40.796Z,11.00
2019-04-04T11:19:11.578Z,11.06
2019-04-04T11:21:42.146Z,11.13
2019-04-04T11:24:12.908Z,11.16
2019-04-04T11:26:43.800Z,11.13
2019-04-04T11:29:14.629Z,11.27
2019-04-04T11:31:45.636Z,11.23
2019-04-04T11:34:16.345Z,11.25
2019-04-04T11:36:47.063Z,11.28
2019-04-04T11:39:18.392Z,11.35
2019-04-04T11:41:49.018Z,11.38
2019-04-04T11:44:19.744Z,11.53
2019-04-04T11:46:50.396Z,11.39
2019-04-04T11:49:21.133Z,11.43
2019-04-04T11:51:51.857Z,11.43
2019-04-04T11:54:22.469Z,11.34
2019-04-04T11:56:53.148Z,11.43
2019-04-04T11:59:23.891Z,11.56
2019-04-04T12:01:54.484Z,11.55
2019-04-04T12:04:25.228Z,11.53
2019-04-04T12:06:55.880Z,11.44
2019-04-04T12:09:26.655Z,11.32
2019-04-04T12:11:57.018Z,11.28
2019-04-04T12:14:27.506Z,11.18
2019-04-04T12:16:58.280Z,10.97
2019-04-04T12:19:29.291Z,10.95
2019-04-04T12:21:59.856Z,10.91
2019-04-04T12:24:30.244Z,10.96
2019-04-04T12:27:00.858Z,10.95
2019-04-04T12:29:31.720Z,10.92
2019-04-04T12:32:02.046Z,10.95
2019-04-04T12:34:32.927Z,10.93
2019-04-04T12:37:03.786Z,10.89
2019-04-04T12:39:34.832Z,10.89
2019-04-04T12:42:06.069Z,10.83
2019-04-04T12:44:36.760Z,10.75
2019-04-04T12:47:07.554Z,10.65
2019-04-04T12:49:38.123Z,10.72
2019-04-04T12:52:09.104Z,10.66
2019-04-04T12:54:40.094Z,10.63
2019-04-04T12:57:13.022Z,10.63
2019-04-04T12:59:43.483Z,10.58
2019-04-04T13:02:14.681Z,10.64
2019-04-04T13:04:45.585Z,10.61
2019-04-04T13:07:16.306Z,10.41
2019-04-04T13:09:47.385Z,10.00
2019-04-04T13:12:18.013Z,10.37
2019-04-04T13:14:48.946Z,10.23
2019-04-04T13:17:20.176Z,10.21
2019-04-04T13:19:50.845Z,10.31
2019-04-04T13:22:21.549Z,10.36
2019-04-04T13:24:54.688Z,10.28
2019-04-04T13:27:24.976Z,10.31
2019-04-04T13:29:55.839Z,10.30
2019-04-04T13:32:26.052Z,10.56
2019-04-04T13:34:59.667Z,10.60
2019-04-04T13:37:28.199Z,10.50
2019-04-04T13:39:58.397Z,10.48
2019-04-04T13:42:28.606Z,10.56
2019-04-04T13:44:58.848Z,10.57
2019-04-04T13:47:29.133Z,10.44
2019-04-04T13:50:02.270Z,10.43
2019-04-04T13:52:32.601Z,10.43
2019-04-04T13:55:03.578Z,10.50
2019-04-04T13:57:33.740Z,10.56
2019-04-04T14:00:05.431Z,10.54
2019-04-04T14:02:35.885Z,10.49
2019-04-04T14:05:10.147Z,10.41
2019-04-04T14:07:39.384Z,10.33
2019-04-04T14:10:09.906Z,10.26
2019-04-04T14:12:40.579Z,10.07
2019-04-04T14:15:12.026Z,10.02
2019-04-04T14:17:43.939Z,9.94
2019-04-04T14:20:14.969Z,9.89
2019-04-04T14:22:45.135Z,9.96
2019-04-04T14:25:15.508Z,9.88
2019-04-04T14:27:45.673Z,9.78
2019-04-04T14:30:18.215Z,9.88
2019-04-04T14:32:48.437Z,9.92
2019-04-04T14:35:18.624Z,9.94
2019-04-04T14:37:48.994Z,9.72
2019-04-04T14:40:19.217Z,9.65
2019-04-04T14:42:49.487Z,9.71
2019-04-04T14:45:19.662Z,9.61
2019-04-04T14:47:50.113Z,9.63
2019-04-04T14:50:20.697Z,9.62
2019-04-04T14:52:51.764Z,9.57
2019-04-04T14:55:22.832Z,9.46
2019-04-04T14:57:53.060Z,9.34
2019-04-04T15:00:23.357Z,9.23
2019-04-04T15:02:53.598Z,9.18
2019-04-04T15:05:23.780Z,9.20
2019-04-04T15:07:55.036Z,9.29
2019-04-04T15:10:25.358Z,9.27
2019-04-04T15:12:55.529Z,9.23
2019-04-04T15:15:26.419Z,9.19
2019-04-04T15:17:57.833Z,9.19
2019-04-04T15:20:28.171Z,9.28
2019-04-04T15:22:58.507Z,9.25
2019-04-04T15:25:28.905Z,9.20
2019-04-04T15:27:59.961Z,9.23
2019-04-04T15:30:31.196Z,9.23
2019-04-04T15:33:02.776Z,9.23
2019-04-04T15:35:33.102Z,9.11
2019-04-04T15:38:03.444Z,9.06
2019-04-04T15:40:33.611Z,9.05
2019-04-04T15:43:03.864Z,9.02
2019-04-04T15:45:34.035Z,8.97
2019-04-04T15:48:04.335Z,8.97
2019-04-04T15:50:34.599Z,8.91
2019-04-04T15:53:04.980Z,8.94
2019-04-04T15:55:35.929Z,8.95
2019-04-04T15:58:06.580Z,8.99
2019-04-04T16:00:37.125Z,8.91
2019-04-04T16:03:07.973Z,8.98
2019-04-04T16:05:38.881Z,8.99
2019-04-04T16:08:09.168Z,8.88
2019-04-04T16:10:39.492Z,9.02
2019-04-04T16:13:09.857Z,9.08
2019-04-04T16:15:40.113Z,9.14
2019-04-04T16:18:10.292Z,9.21
2019-04-04T16:20:40.542Z,9.17
2019-04-04T16:23:10.814Z,9.14
2019-04-04T16:25:41.016Z,9.07
2019-04-04T16:28:11.211Z,9.00
2019-04-04T16:30:41.532Z,8.98
2019-04-04T16:33:11.861Z,8.93
2019-04-04T16:35:42.100Z,8.83
2019-04-04T16:38:12.254Z,8.83
2019-04-04T16:40:42.466Z,8.86
2019-04-04T16:43:12.634Z,8.75
2019-04-04T16:45:42.879Z,8.74
2019-04-04T16:48:14.021Z,8.76
2019-04-04T16:50:45.378Z,8.81
2019-04-04T16:53:15.535Z,8.73
2019-04-04T16:55:45.723Z,8.84
2019-04-04T16:58:15.875Z,8.74
2019-04-04T17:00:48.233Z,8.58
2019-04-04T17:03:19.758Z,8.62
2019-04-04T17:05:50.094Z,8.63
2019-04-04T17:08:20.722Z,8.66
2019-04-04T17:10:51.040Z,8.50
2019-04-04T17:13:21.410Z,8.45
2019-04-04T17:15:52.090Z,8.47
2019-04-04T17:18:24.947Z,8.42
2019-04-04T17:20:55.148Z,8.41
2019-04-04T17:23:25.345Z,8.43
2019-04-04T17:25:56.844Z,8.59
2019-04-04T17:28:27.803Z,8.49
2019-04-04T17:30:57.994Z,8.42
2019-04-04T17:33:28.743Z,8.35
2019-04-04T17:35:59.499Z,8.30
2019-04-04T17:38:29.682Z,8.18
2019-04-04T17:40:59.863Z,8.11
2019-04-04T17:43:30.146Z,8.06
2019-04-04T17:46:00.946Z,8.01
2019-04-04T17:48:33.467Z,8.01
2019-04-04T17:51:06.492Z,7.99
2019-04-04T17:53:37.540Z,7.96
2019-04-04T17:56:08.008Z,7.94
2019-04-04T17:58:38.682Z,7.93
2019-04-04T18:01:11.683Z,7.94
2019-04-04T18:03:42.659Z,7.90
2019-04-04T18:06:13.347Z,7.86
2019-04-04T18:08:44.174Z,7.92
2019-04-04T18:11:16.942Z,7.93
2019-04-04T18:13:48.167Z,8.03
2019-04-04T18:16:19.014Z,8.00
2019-04-04T18:18:51.243Z,7.94
2019-04-04T18:21:22.263Z,7.94
2019-04-04T18:23:53.103Z,7.92
2019-04-04T18:26:23.841Z,7.90
2019-04-04T18:28:54.714Z,8.01
2019-04-04T18:31:25.638Z,8.01
2019-04-04T18:33:56.284Z,8.01
2019-04-04T18:36:29.906Z,8.01
2019-04-04T18:39:00.823Z,8.00
2019-04-04T18:41:33.380Z,8.03
2019-04-04T18:44:05.033Z,7.98
2019-04-04T18:46:35.987Z,8.01
2019-04-04T18:49:07.086Z,8.03
2019-04-04T18:51:38.560Z,8.04
2019-04-04T18:54:09.475Z,8.01
2019-04-04T18:56:40.145Z,8.03
2019-04-04T18:59:10.919Z,8.00
2019-04-04T19:01:42.834Z,8.00
2019-04-04T19:04:14.800Z,7.94
2019-04-04T19:06:45.763Z,7.97
2019-04-04T19:09:16.473Z,7.93
2019-04-04T19:11:47.342Z,7.91
2019-04-04T19:14:18.059Z,7.84
2019-04-04T19:16:49.998Z,7.84
2019-04-04T19:19:21.841Z,7.89
2019-04-04T19:21:55.034Z,7.93
2019-04-04T19:24:25.697Z,7.94
2019-04-04T19:26:56.742Z,7.94
2019-04-04T19:29:27.570Z,7.90
2019-04-04T19:32:00.498Z,7.83
2019-04-04T19:34:31.377Z,7.84
2019-04-04T19:37:02.310Z,7.65
2019-04-04T19:39:35.643Z,7.69
2019-04-04T19:42:06.873Z,7.59
2019-04-04T19:44:37.950Z,7.57
2019-04-04T19:47:09.026Z,7.36
2019-04-04T19:49:39.887Z,7.22
2019-04-04T19:52:10.836Z,7.18
2019-04-04T19:54:41.621Z,7.16
2019-04-04T19:57:12.835Z,7.03
2019-04-04T19:59:44.900Z,7.04
2019-04-04T20:02:15.850Z,7.00
2019-04-04T20:04:49.300Z,6.98
2019-04-04T20:07:20.061Z,6.98
2019-04-04T20:09:51.211Z,7.15
2019-04-04T20:12:22.748Z,7.30
2019-04-04T20:14:56.017Z,7.25
2019-04-04T20:17:28.970Z,7.23
2019-04-04T20:20:00.050Z,7.18
2019-04-04T20:22:30.940Z,7.14
2019-04-04T20:25:04.419Z,7.23
2019-04-04T20:27:35.145Z,7.19
2019-04-04T20:30:07.046Z,7.18
2019-04-04T20:32:37.811Z,7.25
2019-04-04T20:35:09.084Z,7.21
2019-04-04T20:37:39.879Z,7.18
2019-04-04T20:40:10.868Z,7.27
2019-04-04T20:42:41.759Z,7.25
2019-04-04T20:45:12.679Z,7.25
2019-04-04T20:47:43.692Z,7.32
2019-04-04T20:50:15.772Z,7.30
2019-04-04T20:52:46.606Z,7.30
2019-04-04T20:55:16.853Z,7.20
2019-04-04T20:57:47.676Z,7.18
2019-04-04T21:00:18.685Z,7.27
2019-04-04T21:02:49.719Z,7.26
2019-04-04T21:05:20.594Z,7.14
2019-04-04T21:07:51.490Z,7.10
2019-04-04T21:10:22.228Z,7.08
2019-04-04T21:12:52.947Z,7.06
2019-04-04T21:15:23.555Z,7.05
2019-04-04T21:17:54.518Z,7.11
2019-04-04T21:20:25.377Z,7.08
2019-04-04T21:22:56.251Z,7.12
2019-04-04T21:25:27.014Z,7.10
2019-04-04T21:27:57.798Z,7.10
2019-04-04T21:30:28.600Z,7.21
2019-04-04T21:32:59.504Z,7.28
2019-04-04T21:35:30.266Z,7.25
2019-04-04T21:38:01.003Z,7.27
2019-04-04T21:40:31.933Z,7.25
2019-04-04T21:43:02.678Z,7.16
2019-04-04T21:45:33.727Z,7.16
2019-04-04T21:48:04.643Z,7.18
2019-04-04T21:50:38.102Z,7.17
2019-04-04T21:53:07.504Z,7.21
2019-04-04T21:55:38.290Z,7.10
2019-04-04T21:58:09.199Z,7.02
2019-04-04T22:00:44.532Z,6.98
2019-04-04T22:03:15.680Z,7.02
2019-04-04T22:05:46.522Z,7.03
2019-04-04T22:08:18.309Z,7.08
2019-04-04T22:10:49.198Z,7.09
2019-04-04T22:13:20.897Z,6.99
2019-04-04T22:15:51.569Z,7.00
2019-04-04T22:18:22.511Z,7.02
2019-04-04T22:20:53.239Z,7.03
2019-04-04T22:23:24.315Z,7.10
2019-04-04T22:25:55.418Z,7.19
2019-04-04T22:28:26.544Z,7.19
2019-04-04T22:30:57.499Z,7.19
2019-04-04T22:33:28.382Z,7.21
2019-04-04T22:35:59.266Z,7.12
2019-04-04T22:38:30.022Z,7.18
2019-04-04T22:41:00.843Z,7.19
2019-04-04T22:43:31.578Z,7.15
2019-04-04T22:46:02.221Z,7.19
2019-04-04T22:48:33.164Z,7.19
2019-04-04T22:51:03.946Z,7.09
2019-04-04T22:53:34.827Z,7.04
2019-04-04T22:56:05.262Z,7.05
2019-04-04T22:58:36.154Z,6.96
2019-04-04T23:01:06.553Z,5.79
2019-04-04T23:03:37.402Z,6.78
2019-04-04T23:06:08.088Z,6.58
2019-04-04T23:08:38.671Z,6.57
2019-04-04T23:11:09.342Z,6.38
2019-04-04T23:13:40.186Z,6.34
2019-04-04T23:16:10.898Z,6.23
2019-04-04T23:18:41.643Z,6.16
2019-04-04T23:21:12.190Z,6.10
2019-04-04T23:23:43.757Z,5.99
2019-04-04T23:26:14.595Z,5.93
2019-04-04T23:28:45.733Z,5.83
2019-04-04T23:31:16.688Z,5.65
2019-04-04T23:33:47.470Z,5.59
2019-04-04T23:36:18.491Z,5.56
2019-04-04T23:38:49.324Z,5.52
2019-04-04T23:41:19.991Z,5.49
2019-04-04T23:43:51.024Z,5.48
2019-04-04T23:46:21.833Z,5.44
2019-04-04T23:48:52.272Z,5.41
2019-04-04T23:51:23.032Z,5.26
2019-04-04T23:53:54.035Z,5.24
2019-04-04T23:56:24.856Z,5.22
2019-04-04T23:58:55.790Z,5.17
